首页
METAR-TAF:

METAR-TAF

机场 :

肯皮亞圖爾濟, 罗马尼亚

纬度: 46-30-12N, 经度: 023-53-07E, 海拔: 324米

当前天气观测

该预报发布于26分钟前的16:00 UTC
风速4节,风向西北
温度 6°C
湿度 65%
气压 1022 hPa
能见度10公里或以上
散云层高于20000英尺

METAR: LRCT 171600Z 32004KT 9999 SCT200 06/00 Q1022 BLU BLU

时间: 18:26 (16:26 UTC)

预报

该预报发布于5小时和26分钟前的11:00 UTC
预报有效从17日的 12点(UTC)到 18日的 12点(UTC)
风速5节,风向东转东北
能见度10公里或以上
多云层高于20000英尺
短暂存在
从 17日的 12点(UTC)到 17日的 16点(UTC)
风速3节,风向多变
能見度: 7000
散云层高于15000英尺
成为
从 17日的 17点(UTC)到 17日的 19点(UTC)
风速10节,风向
能見度: 6000
散云层高于5000英尺
多云层高于10000英尺
几率 30% :
短暂存在
从 18日的 02点(UTC)到 18日的 06点(UTC)
风速4节,风向西南
能見度: 1000
散云层高于700英尺
轻雾, 浅雾

TAF: LRCT 171100Z 1712/1812 06005KT 9999 BKN200 TEMPO 1712/1716 VRB03KT 7000 SCT150 BECMG 1717/1719 18010KT 6000 SCT050 BKN100 PROB30 TEMPO 1802/1806 22004KT 1000 BR MIFG SCT007

超过4000个机场的气象观测和天气预报(METAR&TAF报告)。

可查询的气象台以黄色和红色小点在地图上表示。

将鼠标移到小点上方,可查看气象台名称。

然后点击查看天气观测和预报。

如需切换地图:点击带黑十字的绿色按钮放大地图;点击带横线的绿色按钮缩小地图;或者点击绿色箭头查看邻近地区的地图。


METAR-TAF: